createdAt,value
2022-12-06T00:00:12.485Z,6.49
2022-12-06T00:00:44.361Z,6.50
2022-12-06T00:01:21.671Z,6.55
2022-12-06T00:01:53.583Z,6.55
2022-12-06T00:02:25.490Z,6.55
2022-12-06T00:02:57.480Z,6.65
2022-12-06T00:03:29.413Z,6.61
2022-12-06T00:04:04.077Z,6.58
2022-12-06T00:04:36.029Z,6.54
2022-12-06T00:05:08.181Z,6.52
2022-12-06T00:05:44.725Z,6.55
2022-12-06T00:06:20.779Z,6.57
2022-12-06T00:06:52.714Z,6.69
2022-12-06T00:07:24.639Z,6.66
2022-12-06T00:07:56.523Z,6.67
2022-12-06T00:08:28.359Z,6.63
2022-12-06T00:09:00.963Z,6.51
2022-12-06T00:09:33.340Z,6.59
2022-12-06T00:10:05.964Z,6.52
2022-12-06T00:10:37.871Z,6.52
2022-12-06T00:11:15.593Z,6.58
2022-12-06T00:11:47.756Z,6.55
2022-12-06T00:12:19.597Z,6.55
2022-12-06T00:12:51.708Z,6.47
2022-12-06T00:13:23.563Z,6.48
2022-12-06T00:14:01.160Z,6.50
2022-12-06T00:14:33.000Z,6.58
2022-12-06T00:15:05.227Z,6.64
2022-12-06T00:15:37.546Z,6.72
2022-12-06T00:16:12.368Z,6.74
2022-12-06T00:16:44.315Z,6.73
2022-12-06T00:17:16.462Z,6.77
2022-12-06T00:17:48.309Z,6.68
2022-12-06T00:18:20.138Z,6.61
2022-12-06T00:18:52.555Z,6.50
2022-12-06T00:19:24.463Z,6.39
2022-12-06T00:19:56.450Z,6.39
2022-12-06T00:20:28.500Z,6.39
2022-12-06T00:21:08.591Z,6.43
2022-12-06T00:21:40.496Z,6.53
2022-12-06T00:22:12.325Z,6.49
2022-12-06T00:22:47.606Z,6.36
2022-12-06T00:23:19.475Z,6.29
2022-12-06T00:23:53.840Z,6.33
2022-12-06T00:24:25.695Z,6.28
2022-12-06T00:24:57.492Z,6.20
2022-12-06T00:25:29.915Z,6.23
2022-12-06T00:26:01.907Z,6.23
2022-12-06T00:26:38.058Z,6.30
2022-12-06T00:27:09.948Z,6.27
2022-12-06T00:27:41.875Z,6.26
2022-12-06T00:28:13.989Z,6.24
2022-12-06T00:28:45.866Z,6.36
2022-12-06T00:29:23.034Z,6.38
2022-12-06T00:29:54.890Z,6.37
2022-12-06T00:30:26.756Z,6.37
2022-12-06T00:31:04.337Z,6.39
2022-12-06T00:31:36.425Z,6.48
2022-12-06T00:32:08.424Z,6.49
2022-12-06T00:32:40.328Z,6.46
2022-12-06T00:33:12.170Z,6.42
2022-12-06T00:33:44.574Z,6.43
2022-12-06T00:34:16.699Z,6.45
2022-12-06T00:34:48.548Z,6.54
2022-12-06T00:35:20.385Z,6.51
2022-12-06T00:36:02.148Z,6.48
2022-12-06T00:36:36.968Z,6.59
2022-12-06T00:37:08.818Z,6.62
2022-12-06T00:37:40.835Z,6.48
2022-12-06T00:38:12.683Z,6.44
2022-12-06T00:38:45.551Z,6.39
2022-12-06T00:39:18.267Z,6.45
2022-12-06T00:39:50.083Z,6.50
2022-12-06T00:40:21.932Z,6.54
2022-12-06T00:41:03.542Z,6.42
2022-12-06T00:41:35.366Z,6.38
2022-12-06T00:42:07.191Z,6.28
2022-12-06T00:42:39.022Z,6.32
2022-12-06T00:43:10.868Z,6.31
2022-12-06T00:43:43.215Z,6.33
2022-12-06T00:44:15.406Z,6.31
2022-12-06T00:44:47.229Z,6.38
2022-12-06T00:45:19.036Z,6.37
2022-12-06T00:45:50.899Z,6.41
2022-12-06T00:46:26.076Z,6.40
2022-12-06T00:46:58.068Z,6.32
2022-12-06T00:47:29.904Z,6.37
2022-12-06T00:48:01.695Z,6.38
2022-12-06T00:48:33.969Z,6.36
2022-12-06T00:49:07.354Z,6.39
2022-12-06T00:49:39.456Z,6.29
2022-12-06T00:50:11.682Z,6.19
2022-12-06T00:50:43.502Z,6.24
2022-12-06T00:51:17.582Z,6.29
2022-12-06T00:51:49.424Z,6.21
2022-12-06T00:52:21.354Z,6.14
2022-12-06T00:52:53.212Z,6.17
2022-12-06T00:53:26.272Z,6.06
2022-12-06T00:53:59.010Z,6.14
2022-12-06T00:54:30.904Z,6.19
2022-12-06T00:55:03.042Z,6.18
2022-12-06T00:55:34.889Z,6.19
2022-12-06T00:56:06.856Z,6.27
2022-12-06T00:56:38.779Z,6.36
2022-12-06T00:57:10.601Z,6.28
2022-12-06T00:57:42.440Z,6.17
2022-12-06T00:58:14.905Z,6.22
2022-12-06T00:58:47.191Z,6.20
2022-12-06T00:59:19.033Z,6.25
2022-12-06T00:59:50.936Z,6.17
2022-12-06T01:00:23.127Z,6.12
2022-12-06T01:00:55.357Z,6.03
2022-12-06T01:01:29.881Z,6.00
2022-12-06T01:02:01.822Z,5.84
2022-12-06T01:02:33.659Z,5.85
2022-12-06T01:03:05.995Z,5.98
2022-12-06T01:03:39.037Z,5.99
2022-12-06T01:04:10.981Z,6.04
2022-12-06T01:04:42.887Z,6.06
2022-12-06T01:05:14.722Z,6.19
2022-12-06T01:05:49.411Z,6.14
2022-12-06T01:06:26.062Z,6.13
2022-12-06T01:06:57.872Z,6.16
2022-12-06T01:07:29.762Z,6.18
2022-12-06T01:08:01.859Z,6.16
2022-12-06T01:08:35.195Z,6.11
2022-12-06T01:09:09.991Z,6.14
2022-12-06T01:09:42.522Z,6.20
2022-12-06T01:10:14.484Z,6.24
2022-12-06T01:10:53.780Z,6.17
2022-12-06T01:11:26.564Z,6.17
2022-12-06T01:11:58.847Z,6.25
2022-12-06T01:12:30.699Z,6.15
2022-12-06T01:13:02.638Z,6.20
2022-12-06T01:13:34.783Z,6.16
2022-12-06T01:14:07.033Z,6.08
2022-12-06T01:14:38.937Z,6.10
2022-12-06T01:15:11.286Z,6.02
2022-12-06T01:15:43.105Z,6.03
2022-12-06T01:16:18.691Z,6.05
2022-12-06T01:16:50.714Z,6.09
2022-12-06T01:17:22.737Z,6.09
2022-12-06T01:17:54.570Z,6.08
2022-12-06T01:18:26.388Z,6.00
2022-12-06T01:19:00.580Z,5.95
2022-12-06T01:19:32.443Z,5.90
2022-12-06T01:20:05.556Z,5.96
2022-12-06T01:20:37.410Z,6.07
2022-12-06T01:21:16.066Z,6.03
2022-12-06T01:21:48.963Z,6.04
2022-12-06T01:22:20.864Z,5.98
2022-12-06T01:22:52.725Z,5.78
2022-12-06T01:23:24.559Z,5.86
2022-12-06T01:23:57.172Z,5.86
2022-12-06T01:24:28.987Z,5.86
2022-12-06T01:25:01.073Z,5.97
2022-12-06T01:25:35.770Z,5.98
2022-12-06T01:26:14.364Z,5.98
2022-12-06T01:26:46.165Z,5.98
2022-12-06T01:27:18.321Z,6.01
2022-12-06T01:27:50.163Z,6.05
2022-12-06T01:28:21.997Z,6.12
2022-12-06T01:28:53.995Z,6.16
2022-12-06T01:29:25.810Z,6.14
2022-12-06T01:29:57.999Z,6.03
2022-12-06T01:30:30.320Z,5.97
2022-12-06T01:31:07.841Z,6.02
2022-12-06T01:31:39.848Z,5.90
2022-12-06T01:32:11.707Z,5.99
2022-12-06T01:32:43.993Z,5.97
2022-12-06T01:33:15.869Z,5.92
2022-12-06T01:33:47.732Z,5.88
2022-12-06T01:34:19.566Z,5.90
2022-12-06T01:34:52.843Z,5.80
2022-12-06T01:35:24.791Z,5.78
2022-12-06T01:35:56.642Z,5.81
2022-12-06T01:36:28.522Z,5.80
2022-12-06T01:37:00.377Z,5.67
2022-12-06T01:37:32.231Z,5.63
2022-12-06T01:38:06.201Z,5.71
2022-12-06T01:38:38.302Z,5.73
2022-12-06T01:39:10.893Z,5.74
2022-12-06T01:39:43.673Z,5.75
2022-12-06T01:40:15.550Z,5.86
2022-12-06T01:40:48.033Z,5.96
2022-12-06T01:41:22.022Z,6.02
2022-12-06T01:41:53.914Z,6.01
2022-12-06T01:42:25.861Z,5.96
2022-12-06T01:42:57.835Z,5.91
2022-12-06T01:43:36.349Z,5.88
2022-12-06T01:44:39.428Z,5.98
2022-12-06T01:45:11.468Z,6.00
2022-12-06T01:45:44.274Z,5.96
2022-12-06T01:46:25.070Z,5.97
2022-12-06T01:46:56.786Z,6.07
2022-12-06T01:47:39.035Z,5.99
2022-12-06T01:48:10.840Z,5.95
2022-12-06T01:48:43.396Z,5.96
2022-12-06T01:49:21.990Z,5.97
2022-12-06T01:50:05.756Z,5.97
2022-12-06T01:50:39.626Z,5.94
2022-12-06T01:51:13.537Z,5.88
2022-12-06T01:52:00.614Z,5.69
2022-12-06T01:52:48.707Z,5.67
2022-12-06T01:53:25.393Z,5.78
2022-12-06T01:54:00.329Z,5.79
2022-12-06T01:54:32.826Z,5.75
2022-12-06T01:55:08.301Z,5.80
2022-12-06T01:55:40.805Z,5.86
2022-12-06T01:56:13.039Z,5.92
2022-12-06T01:56:45.444Z,5.98
2022-12-06T01:57:17.951Z,5.88
2022-12-06T01:57:53.801Z,5.89
2022-12-06T01:58:32.491Z,5.82
2022-12-06T01:59:06.343Z,5.99
2022-12-06T01:59:38.232Z,5.92
2022-12-06T02:00:10.389Z,5.99
2022-12-06T02:00:42.151Z,5.98
2022-12-06T02:01:14.606Z,5.99
2022-12-06T02:01:47.446Z,5.99
2022-12-06T02:02:19.898Z,5.96
2022-12-06T02:02:52.203Z,5.97
2022-12-06T02:03:28.017Z,5.80
2022-12-06T02:04:01.440Z,5.76
2022-12-06T02:04:33.688Z,5.79
2022-12-06T02:05:07.066Z,5.82
2022-12-06T02:05:40.910Z,5.81
2022-12-06T02:06:13.231Z,5.79
2022-12-06T02:06:46.563Z,5.71
2022-12-06T02:07:20.556Z,5.67
2022-12-06T02:07:53.922Z,5.77
2022-12-06T02:08:27.830Z,5.77
2022-12-06T02:09:02.645Z,5.78
2022-12-06T02:09:35.544Z,5.92
2022-12-06T02:10:08.032Z,5.82
2022-12-06T02:10:40.186Z,5.79
2022-12-06T02:11:12.044Z,5.79
2022-12-06T02:11:44.132Z,5.78
2022-12-06T02:12:16.533Z,5.81
2022-12-06T02:12:54.134Z,5.87
2022-12-06T02:13:26.471Z,5.91
2022-12-06T02:13:58.882Z,5.75
2022-12-06T02:14:34.220Z,5.77
2022-12-06T02:15:06.677Z,5.76
2022-12-06T02:15:57.594Z,5.76
2022-12-06T02:16:46.415Z,5.64
2022-12-06T02:17:39.989Z,5.76
2022-12-06T02:18:21.212Z,5.69
2022-12-06T02:18:58.897Z,5.58
2022-12-06T02:19:36.685Z,5.57
2022-12-06T02:20:22.355Z,5.58
2022-12-06T02:21:08.918Z,5.58
2022-12-06T02:21:43.570Z,5.67
2022-12-06T02:22:47.530Z,5.73
2022-12-06T02:23:31.605Z,5.67
2022-12-06T02:24:06.146Z,5.69
2022-12-06T02:25:08.894Z,5.72
2022-12-06T02:26:05.334Z,5.64
2022-12-06T02:26:43.519Z,5.65
2022-12-06T02:27:32.459Z,5.73
2022-12-06T02:28:07.068Z,5.74
2022-12-06T02:29:00.647Z,5.65
2022-12-06T02:30:08.798Z,5.66
2022-12-06T02:31:09.801Z,5.77
2022-12-06T02:31:51.101Z,5.74
2022-12-06T02:32:36.795Z,5.82
2022-12-06T02:33:15.785Z,5.84
2022-12-06T02:34:07.224Z,5.81
2022-12-06T02:34:40.342Z,5.77
2022-12-06T02:35:35.734Z,5.76
2022-12-06T02:36:26.205Z,5.86
2022-12-06T02:37:10.776Z,5.90
2022-12-06T02:37:59.060Z,5.84
2022-12-06T02:38:42.292Z,5.83
2022-12-06T02:39:56.302Z,5.88
2022-12-06T02:40:43.588Z,5.99
2022-12-06T02:41:30.704Z,5.98
2022-12-06T02:42:15.699Z,5.94
2022-12-06T02:43:02.988Z,5.92
2022-12-06T02:43:40.558Z,5.84
2022-12-06T02:44:23.622Z,5.90
2022-12-06T02:45:00.237Z,5.99
2022-12-06T02:45:37.682Z,5.98
2022-12-06T02:46:12.999Z,5.88
2022-12-06T02:46:46.086Z,5.92
2022-12-06T02:47:22.415Z,5.91
2022-12-06T02:47:58.010Z,5.86
2022-12-06T02:48:33.691Z,5.89
2022-12-06T02:49:08.434Z,6.01
2022-12-06T02:49:46.597Z,5.98
2022-12-06T02:50:25.378Z,5.86
2022-12-06T02:51:05.859Z,5.88
2022-12-06T02:51:38.771Z,5.86
2022-12-06T02:52:13.453Z,5.85
2022-12-06T02:52:49.471Z,5.82
2022-12-06T02:53:24.042Z,5.79
2022-12-06T02:53:59.198Z,5.84
2022-12-06T02:54:32.156Z,5.86
2022-12-06T02:55:08.872Z,5.83
2022-12-06T02:55:42.637Z,5.95
2022-12-06T02:56:17.280Z,5.85
2022-12-06T02:56:49.171Z,5.97
2022-12-06T02:57:33.483Z,6.00
2022-12-06T02:58:05.328Z,5.97
2022-12-06T02:58:38.286Z,5.96
2022-12-06T02:59:10.474Z,6.00
2022-12-06T02:59:54.885Z,5.91
2022-12-06T03:00:37.305Z,5.94
2022-12-06T03:01:18.186Z,5.99
2022-12-06T03:01:55.267Z,6.07
2022-12-06T03:02:27.307Z,6.10
2022-12-06T03:03:37.960Z,5.99
2022-12-06T03:04:19.040Z,6.04
2022-12-06T03:04:53.851Z,6.04
2022-12-06T03:05:33.863Z,5.99
2022-12-06T03:06:20.585Z,5.92
2022-12-06T03:07:10.318Z,5.81
2022-12-06T03:07:47.116Z,5.83
2022-12-06T03:08:48.133Z,5.78
2022-12-06T03:09:19.900Z,5.85
2022-12-06T03:10:25.243Z,5.91
2022-12-06T03:11:01.824Z,5.92
2022-12-06T03:12:01.221Z,5.91
2022-12-06T03:12:42.458Z,5.91
2022-12-06T03:13:27.999Z,6.00
2022-12-06T03:14:05.405Z,5.95
2022-12-06T03:15:05.914Z,5.98
2022-12-06T03:15:59.097Z,5.96
2022-12-06T03:16:48.793Z,6.01
2022-12-06T03:17:38.714Z,6.03
2022-12-06T03:18:23.176Z,5.92
2022-12-06T03:18:54.953Z,5.85
2022-12-06T03:19:29.210Z,5.80
2022-12-06T03:20:10.170Z,5.86
2022-12-06T03:20:51.403Z,5.95
2022-12-06T03:21:36.830Z,5.79
2022-12-06T03:22:11.834Z,5.78
2022-12-06T03:22:48.879Z,5.77
2022-12-06T03:23:27.948Z,5.85
2022-12-06T03:24:00.046Z,5.81
2022-12-06T03:24:36.137Z,5.76
2022-12-06T03:25:10.607Z,5.75
2022-12-06T03:25:46.995Z,5.68
2022-12-06T03:26:25.201Z,5.73
2022-12-06T03:26:59.860Z,5.79
2022-12-06T03:27:32.063Z,5.76
2022-12-06T03:28:07.350Z,5.71
2022-12-06T03:28:39.603Z,5.76
2022-12-06T03:29:14.778Z,5.70
2022-12-06T03:29:56.644Z,5.73
2022-12-06T03:30:32.591Z,5.72
2022-12-06T03:31:11.886Z,5.60
2022-12-06T03:31:46.150Z,5.66
2022-12-06T03:32:23.058Z,5.49
2022-12-06T03:32:55.378Z,5.47
2022-12-06T03:33:29.875Z,5.51
2022-12-06T03:34:13.628Z,5.60
2022-12-06T03:34:49.821Z,5.60
2022-12-06T03:35:29.117Z,5.58
2022-12-06T03:36:02.423Z,5.53
2022-12-06T03:36:34.823Z,5.57
2022-12-06T03:37:09.895Z,5.64
2022-12-06T03:37:47.204Z,5.68
2022-12-06T03:38:46.094Z,5.77
2022-12-06T03:39:32.052Z,5.86
2022-12-06T03:40:17.640Z,5.67
2022-12-06T03:40:52.869Z,5.74
2022-12-06T03:41:29.868Z,5.81
2022-12-06T03:42:03.116Z,5.76
2022-12-06T03:42:35.644Z,5.60
2022-12-06T03:43:08.085Z,5.51
2022-12-06T03:43:39.999Z,5.52
2022-12-06T03:44:11.923Z,5.60
2022-12-06T03:44:44.285Z,5.61
2022-12-06T03:45:16.493Z,5.63
2022-12-06T03:46:04.038Z,5.76
2022-12-06T03:46:44.306Z,5.69
2022-12-06T03:47:24.502Z,5.43
2022-12-06T03:48:12.653Z,5.47
2022-12-06T03:48:49.434Z,5.56
2022-12-06T03:50:03.010Z,5.54
2022-12-06T03:50:55.465Z,5.55
2022-12-06T03:51:32.468Z,5.40
2022-12-06T03:52:04.955Z,5.45
2022-12-06T03:52:38.485Z,5.44
2022-12-06T03:53:10.447Z,5.31
2022-12-06T03:53:51.964Z,5.40
2022-12-06T03:54:23.897Z,5.36
2022-12-06T03:54:55.831Z,5.43
2022-12-06T03:55:27.947Z,5.37
2022-12-06T03:56:00.482Z,5.38
2022-12-06T03:56:36.721Z,5.33
2022-12-06T03:57:09.594Z,5.27
2022-12-06T03:57:41.426Z,5.26
2022-12-06T03:58:13.330Z,5.24
2022-12-06T03:58:45.787Z,5.17
2022-12-06T03:59:17.613Z,5.21
2022-12-06T03:59:49.516Z,5.26
2022-12-06T04:00:21.453Z,5.19
2022-12-06T04:00:53.702Z,5.20
2022-12-06T04:01:25.561Z,5.23
2022-12-06T04:01:57.470Z,5.26
2022-12-06T04:02:29.353Z,5.33
2022-12-06T04:03:01.169Z,5.45
2022-12-06T04:03:33.108Z,5.47
2022-12-06T04:04:05.656Z,5.47
2022-12-06T04:04:37.562Z,5.38
2022-12-06T04:05:09.703Z,5.39
2022-12-06T04:05:41.585Z,5.37
2022-12-06T04:06:14.184Z,5.43
2022-12-06T04:06:46.064Z,5.41
2022-12-06T04:07:21.335Z,5.32
2022-12-06T04:07:53.350Z,5.38
2022-12-06T04:08:26.057Z,5.41
2022-12-06T04:09:17.897Z,5.48
2022-12-06T04:09:52.801Z,5.61
2022-12-06T04:10:24.681Z,5.59
2022-12-06T04:10:56.586Z,5.66
2022-12-06T04:11:28.732Z,5.63
2022-12-06T04:12:00.535Z,5.62
2022-12-06T04:12:53.370Z,5.58
2022-12-06T04:13:25.925Z,5.52
2022-12-06T04:13:57.730Z,5.38
2022-12-06T04:14:32.436Z,5.39
2022-12-06T04:15:06.064Z,5.48
2022-12-06T04:15:39.497Z,5.42
2022-12-06T04:16:30.106Z,5.40
2022-12-06T04:17:21.054Z,5.42
2022-12-06T04:18:11.548Z,5.40
2022-12-06T04:18:43.402Z,5.49
2022-12-06T04:19:15.279Z,5.35
2022-12-06T04:19:51.962Z,5.34
2022-12-06T04:20:24.501Z,5.40
2022-12-06T04:21:22.797Z,5.54
2022-12-06T04:22:13.220Z,5.61
2022-12-06T04:23:03.775Z,5.63
2022-12-06T04:23:37.639Z,5.65
2022-12-06T04:24:09.471Z,5.59
2022-12-06T04:24:41.288Z,5.58
2022-12-06T04:25:13.194Z,5.57
2022-12-06T04:25:45.008Z,5.56
2022-12-06T04:26:19.874Z,5.55
2022-12-06T04:26:51.727Z,5.47
2022-12-06T04:27:42.925Z,5.54
2022-12-06T04:28:33.616Z,5.53
2022-12-06T04:29:24.047Z,5.58
2022-12-06T04:30:14.405Z,5.62
2022-12-06T04:31:05.245Z,5.41
2022-12-06T04:31:57.352Z,5.29
2022-12-06T04:32:47.889Z,5.29
2022-12-06T04:33:38.779Z,5.35
2022-12-06T04:34:29.612Z,5.36
2022-12-06T04:35:19.951Z,5.42
2022-12-06T04:36:10.546Z,5.48
2022-12-06T04:37:00.975Z,5.42
2022-12-06T04:37:51.813Z,5.38
2022-12-06T04:38:42.294Z,5.46
2022-12-06T04:39:19.159Z,5.31
2022-12-06T04:39:52.671Z,5.29
2022-12-06T04:40:24.535Z,5.31
2022-12-06T04:40:56.330Z,5.34
2022-12-06T04:41:46.728Z,5.44
2022-12-06T04:42:50.933Z,5.34
2022-12-06T04:43:42.007Z,5.16
2022-12-06T04:44:14.025Z,5.41
2022-12-06T04:44:46.089Z,5.28
2022-12-06T04:45:17.924Z,5.27
2022-12-06T04:45:51.605Z,5.28
2022-12-06T04:46:23.600Z,5.33
2022-12-06T04:46:55.600Z,5.38
2022-12-06T04:47:27.707Z,5.32
2022-12-06T04:47:59.568Z,5.40
2022-12-06T04:48:31.881Z,5.40
2022-12-06T04:49:04.148Z,5.40
2022-12-06T04:49:36.576Z,5.39
2022-12-06T04:50:08.709Z,5.35
2022-12-06T04:50:40.547Z,5.40
2022-12-06T04:51:13.075Z,5.29
2022-12-06T04:51:45.100Z,5.30
2022-12-06T04:52:17.840Z,5.34
2022-12-06T04:52:49.727Z,5.43
2022-12-06T04:53:21.637Z,5.47
2022-12-06T04:53:53.751Z,5.52
2022-12-06T04:54:25.674Z,5.54
2022-12-06T04:54:57.486Z,5.57
2022-12-06T04:55:29.365Z,5.56
2022-12-06T04:56:01.745Z,5.48
2022-12-06T04:56:33.899Z,5.37
2022-12-06T04:57:11.220Z,5.36
2022-12-06T04:57:43.304Z,5.43
2022-12-06T04:58:15.958Z,5.52
2022-12-06T04:58:47.883Z,5.48
2022-12-06T04:59:20.322Z,5.37
2022-12-06T04:59:52.420Z,5.28
2022-12-06T05:00:24.626Z,5.36
2022-12-06T05:00:56.799Z,5.27
2022-12-06T05:01:28.972Z,5.23
2022-12-06T05:02:00.892Z,5.25
2022-12-06T05:02:32.735Z,5.21
2022-12-06T05:03:04.595Z,5.25
2022-12-06T05:03:42.475Z,5.38
2022-12-06T05:04:16.058Z,5.50
2022-12-06T05:04:48.336Z,5.59
2022-12-06T05:05:20.185Z,5.62
2022-12-06T05:05:52.269Z,5.63
2022-12-06T05:06:24.145Z,5.70
2022-12-06T05:06:56.031Z,5.72
2022-12-06T05:07:28.320Z,5.68
2022-12-06T05:08:00.405Z,5.71
2022-12-06T05:08:32.828Z,5.79
2022-12-06T05:09:04.993Z,5.81
2022-12-06T05:09:36.860Z,5.84
2022-12-06T05:10:09.174Z,5.87
2022-12-06T05:10:41.015Z,5.81
2022-12-06T05:11:13.590Z,5.80
2022-12-06T05:11:45.402Z,5.76
2022-12-06T05:12:17.220Z,5.76
2022-12-06T05:12:49.058Z,5.81
2022-12-06T05:13:21.127Z,5.88
2022-12-06T05:13:53.018Z,5.91
2022-12-06T05:14:24.841Z,5.90
2022-12-06T05:14:56.729Z,5.90
2022-12-06T05:15:29.815Z,5.92
2022-12-06T05:16:04.409Z,5.95
2022-12-06T05:16:36.343Z,5.93
2022-12-06T05:17:08.248Z,5.88
2022-12-06T05:17:40.479Z,5.83
2022-12-06T05:18:12.376Z,5.78
2022-12-06T05:18:44.247Z,5.74
2022-12-06T05:19:16.420Z,5.74
2022-12-06T05:19:48.222Z,5.72
2022-12-06T05:20:20.243Z,5.76
2022-12-06T05:21:04.571Z,5.96
2022-12-06T05:21:36.401Z,5.97
2022-12-06T05:22:08.221Z,5.96
2022-12-06T05:22:41.130Z,5.96
2022-12-06T05:23:13.247Z,5.98
2022-12-06T05:23:45.381Z,5.99
2022-12-06T05:24:17.461Z,6.03
2022-12-06T05:24:49.365Z,6.03
2022-12-06T05:25:21.250Z,6.02
2022-12-06T05:25:58.738Z,6.06
2022-12-06T05:26:30.669Z,6.14
2022-12-06T05:27:02.811Z,6.07
2022-12-06T05:27:36.243Z,6.05
2022-12-06T05:28:09.993Z,5.97
2022-12-06T05:28:42.711Z,5.95
2022-12-06T05:29:14.572Z,5.92
2022-12-06T05:29:46.390Z,6.00
2022-12-06T05:30:18.354Z,5.89
2022-12-06T05:30:50.153Z,5.90
2022-12-06T05:31:23.602Z,5.90
2022-12-06T05:31:55.559Z,5.92
2022-12-06T05:32:27.527Z,5.97
2022-12-06T05:32:59.364Z,6.02
2022-12-06T05:33:31.443Z,6.06
2022-12-06T05:34:03.305Z,6.08
2022-12-06T05:34:35.094Z,6.03
2022-12-06T05:35:07.648Z,5.99
2022-12-06T05:35:39.518Z,6.05
2022-12-06T05:36:14.679Z,6.03
2022-12-06T05:36:46.871Z,5.99
2022-12-06T05:37:18.688Z,5.93
2022-12-06T05:37:50.533Z,5.93
2022-12-06T05:38:22.821Z,5.93
2022-12-06T05:38:55.984Z,5.97
2022-12-06T05:39:29.252Z,5.98
2022-12-06T05:40:01.253Z,6.01
2022-12-06T05:40:33.341Z,6.04
2022-12-06T05:41:05.702Z,5.98
2022-12-06T05:41:37.534Z,5.96
2022-12-06T05:42:09.973Z,5.95
2022-12-06T05:42:41.910Z,5.96
2022-12-06T05:43:14.402Z,6.03
2022-12-06T05:43:46.381Z,6.06
2022-12-06T05:44:18.256Z,6.11
2022-12-06T05:44:50.133Z,6.15
2022-12-06T05:45:22.018Z,6.18
2022-12-06T05:45:53.920Z,6.15
2022-12-06T05:46:26.047Z,6.07
2022-12-06T05:46:57.886Z,5.94
2022-12-06T05:47:29.989Z,6.05
2022-12-06T05:48:01.907Z,5.99
2022-12-06T05:48:34.258Z,5.88
2022-12-06T05:49:06.109Z,5.95
2022-12-06T05:49:37.954Z,5.96
2022-12-06T05:50:10.252Z,5.94
2022-12-06T05:50:42.073Z,5.98
2022-12-06T05:51:13.883Z,5.99
2022-12-06T05:51:45.775Z,6.05
2022-12-06T05:52:17.756Z,6.10
2022-12-06T05:52:57.152Z,6.04
2022-12-06T05:53:29.034Z,6.01
2022-12-06T05:54:03.472Z,5.98
2022-12-06T05:54:35.374Z,5.94
2022-12-06T05:55:07.789Z,5.98
2022-12-06T05:55:39.728Z,6.00
2022-12-06T05:56:12.990Z,6.05
2022-12-06T05:56:45.081Z,6.10
2022-12-06T05:57:17.354Z,6.06
2022-12-06T05:57:50.077Z,6.02
2022-12-06T05:58:22.070Z,5.94
2022-12-06T05:58:53.890Z,6.02
2022-12-06T05:59:25.734Z,6.05
2022-12-06T05:59:57.845Z,6.02
2022-12-06T06:00:30.161Z,5.98
2022-12-06T06:01:02.418Z,5.98
2022-12-06T06:01:34.306Z,6.02
2022-12-06T06:02:06.559Z,6.03
2022-12-06T06:02:38.632Z,6.03
2022-12-06T06:03:10.782Z,6.00
2022-12-06T06:03:47.387Z,6.02
2022-12-06T06:04:20.206Z,5.98
2022-12-06T06:04:53.067Z,6.01
2022-12-06T06:05:24.957Z,6.12
2022-12-06T06:05:59.752Z,6.10
2022-12-06T06:06:32.030Z,6.11
2022-12-06T06:07:03.906Z,6.05
2022-12-06T06:07:36.099Z,6.12
2022-12-06T06:08:07.992Z,6.10
2022-12-06T06:08:39.924Z,6.06
2022-12-06T06:09:11.801Z,6.09
2022-12-06T06:09:43.716Z,6.13
2022-12-06T06:10:16.407Z,6.13
2022-12-06T06:10:48.710Z,6.10
2022-12-06T06:11:21.033Z,6.09
2022-12-06T06:11:56.393Z,6.14
2022-12-06T06:12:28.325Z,6.13
2022-12-06T06:13:00.701Z,6.13
2022-12-06T06:13:32.604Z,6.15
2022-12-06T06:14:04.425Z,6.17
2022-12-06T06:14:36.477Z,6.15
2022-12-06T06:15:08.838Z,6.07
2022-12-06T06:15:40.750Z,6.04
2022-12-06T06:16:12.691Z,5.89
2022-12-06T06:16:45.345Z,5.88
2022-12-06T06:17:17.769Z,5.89
2022-12-06T06:17:49.632Z,5.76
2022-12-06T06:18:22.461Z,5.73
2022-12-06T06:18:54.265Z,5.76
2022-12-06T06:19:26.236Z,5.84
2022-12-06T06:19:58.090Z,5.89
2022-12-06T06:20:29.994Z,5.76
2022-12-06T06:21:01.855Z,5.71
2022-12-06T06:21:33.766Z,5.75
2022-12-06T06:22:05.792Z,5.81
2022-12-06T06:22:39.430Z,5.91
2022-12-06T06:23:11.756Z,5.98
2022-12-06T06:23:43.649Z,6.01
2022-12-06T06:24:15.521Z,5.94
2022-12-06T06:24:47.406Z,5.92
2022-12-06T06:25:19.281Z,5.98
2022-12-06T06:25:51.163Z,6.14
2022-12-06T06:26:23.052Z,6.07
2022-12-06T06:26:54.872Z,5.99
2022-12-06T06:27:27.369Z,5.93
2022-12-06T06:27:59.476Z,6.20
2022-12-06T06:28:31.337Z,6.28
2022-12-06T06:29:03.149Z,6.31
2022-12-06T06:29:35.064Z,6.23
2022-12-06T06:30:09.944Z,6.15
2022-12-06T06:30:42.001Z,6.03
2022-12-06T06:31:14.143Z,6.03
2022-12-06T06:31:46.512Z,6.05
2022-12-06T06:32:18.604Z,6.11
2022-12-06T06:32:50.622Z,6.07
2022-12-06T06:33:22.836Z,5.95
2022-12-06T06:33:54.688Z,5.92
2022-12-06T06:34:27.028Z,5.97
2022-12-06T06:34:58.869Z,5.99
2022-12-06T06:35:30.806Z,5.99
2022-12-06T06:36:02.628Z,6.02
2022-12-06T06:36:34.626Z,6.06
2022-12-06T06:37:06.551Z,6.06
2022-12-06T06:37:38.476Z,6.04
2022-12-06T06:38:10.398Z,6.04
2022-12-06T06:38:42.653Z,5.94
2022-12-06T06:39:14.812Z,5.91
2022-12-06T06:39:46.720Z,5.98
2022-12-06T06:40:18.897Z,6.00
2022-12-06T06:40:50.819Z,5.88
2022-12-06T06:41:22.714Z,5.93
2022-12-06T06:41:54.825Z,5.97
2022-12-06T06:42:26.788Z,6.04
2022-12-06T06:43:18.038Z,6.00
2022-12-06T06:43:50.671Z,6.03
2022-12-06T06:44:22.610Z,6.07
2022-12-06T06:44:57.475Z,6.10
2022-12-06T06:45:29.339Z,6.12
2022-12-06T06:46:07.065Z,6.11
2022-12-06T06:46:39.069Z,6.09
2022-12-06T06:47:11.377Z,6.09
2022-12-06T06:47:43.175Z,6.11
2022-12-06T06:48:15.007Z,6.04
2022-12-06T06:48:48.071Z,5.97
2022-12-06T06:49:20.194Z,5.98
2022-12-06T06:49:52.072Z,6.01
2022-12-06T06:50:23.929Z,6.09
2022-12-06T06:50:57.845Z,6.10
2022-12-06T06:51:31.966Z,6.14
2022-12-06T06:52:04.115Z,6.09
2022-12-06T06:52:36.011Z,6.06
2022-12-06T06:53:07.899Z,5.95
2022-12-06T06:53:40.524Z,5.93
2022-12-06T06:54:12.937Z,5.91
2022-12-06T06:54:45.108Z,5.98
2022-12-06T06:55:17.024Z,6.07
2022-12-06T06:55:48.855Z,6.06
2022-12-06T06:56:20.768Z,6.03
2022-12-06T06:56:55.025Z,6.11
2022-12-06T06:57:26.926Z,6.13
2022-12-06T06:57:58.724Z,6.14
2022-12-06T06:58:30.710Z,6.09
2022-12-06T06:59:03.006Z,6.06
2022-12-06T06:59:34.908Z,6.05
2022-12-06T07:00:08.205Z,6.06
2022-12-06T07:00:43.658Z,6.07
2022-12-06T07:01:21.386Z,6.12
2022-12-06T07:01:53.328Z,6.17
2022-12-06T07:02:25.257Z,6.16
2022-12-06T07:02:57.321Z,6.21
2022-12-06T07:03:29.658Z,6.18
2022-12-06T07:04:02.682Z,6.22
2022-12-06T07:04:34.530Z,6.22
2022-12-06T07:05:06.914Z,6.22
2022-12-06T07:05:39.176Z,6.20
2022-12-06T07:06:11.461Z,6.15
2022-12-06T07:06:43.626Z,6.15
2022-12-06T07:07:20.941Z,6.15
2022-12-06T07:07:53.742Z,6.12
2022-12-06T07:08:27.568Z,6.10
2022-12-06T07:08:59.413Z,6.11
2022-12-06T07:09:31.345Z,6.16
2022-12-06T07:10:03.793Z,6.19
2022-12-06T07:10:35.751Z,6.17
2022-12-06T07:11:09.549Z,6.13
2022-12-06T07:11:41.413Z,6.13
2022-12-06T07:12:13.644Z,6.11
2022-12-06T07:12:45.553Z,6.12
2022-12-06T07:13:24.536Z,6.15
2022-12-06T07:13:56.377Z,6.17
2022-12-06T07:14:28.498Z,6.16
2022-12-06T07:15:00.366Z,6.17
2022-12-06T07:15:32.247Z,6.16
2022-12-06T07:16:06.010Z,6.18
2022-12-06T07:16:38.162Z,6.17
2022-12-06T07:17:10.144Z,6.74
2022-12-06T07:17:42.114Z,8.30
2022-12-06T07:18:14.110Z,8.19
2022-12-06T07:18:47.581Z,7.90
2022-12-06T07:19:19.484Z,7.83
2022-12-06T07:19:51.351Z,7.56
2022-12-06T07:20:23.158Z,7.49
2022-12-06T07:21:03.992Z,7.40
2022-12-06T07:21:35.975Z,7.25
2022-12-06T07:22:08.136Z,7.15
2022-12-06T07:22:39.961Z,7.02
2022-12-06T07:23:12.124Z,6.90
2022-12-06T07:23:44.139Z,6.83
2022-12-06T07:24:15.933Z,6.69
2022-12-06T07:24:52.281Z,6.54
2022-12-06T07:25:24.375Z,6.41
2022-12-06T07:26:14.262Z,6.32
2022-12-06T07:26:46.098Z,6.29
2022-12-06T07:27:18.214Z,6.35
2022-12-06T07:27:50.143Z,6.28
2022-12-06T07:28:21.957Z,6.23
2022-12-06T07:28:53.802Z,6.25
2022-12-06T07:29:25.642Z,6.32
2022-12-06T07:29:57.608Z,6.33
2022-12-06T07:30:29.687Z,6.24
2022-12-06T07:31:15.525Z,6.12
2022-12-06T07:31:47.421Z,6.07
2022-12-06T07:32:19.591Z,6.00
2022-12-06T07:32:51.387Z,6.07
2022-12-06T07:33:23.219Z,6.12
2022-12-06T07:33:57.655Z,6.22
2022-12-06T07:34:29.863Z,6.19
2022-12-06T07:35:01.695Z,6.26
2022-12-06T07:36:03.745Z,6.29
2022-12-06T07:36:26.600Z,6.36
2022-12-06T07:36:58.424Z,6.38
2022-12-06T07:37:30.778Z,6.39
2022-12-06T07:38:03.653Z,6.45
2022-12-06T07:38:35.536Z,6.41
2022-12-06T07:39:13.029Z,6.43
2022-12-06T07:39:46.486Z,6.37
2022-12-06T07:40:23.522Z,6.37
2022-12-06T07:41:25.365Z,6.34
2022-12-06T07:42:15.591Z,6.36
2022-12-06T07:43:10.677Z,6.35
2022-12-06T07:44:01.125Z,6.32
2022-12-06T07:44:54.432Z,6.41
2022-12-06T07:45:29.127Z,6.36
2022-12-06T07:46:01.006Z,6.48
2022-12-06T07:46:32.966Z,6.46
2022-12-06T07:47:04.862Z,6.36
2022-12-06T07:47:39.003Z,6.28
2022-12-06T07:48:11.517Z,6.28